Time;durP1;ratioP1;P1;durP2;ratioP2;P2;SDS_P1;SDS_P2;PMS_P1;PMS_P2;Temp;Humidity;BMP_temperature;BMP_pressure;BME280_temperature;BME280_humidity;BME280_pressure;Samples;Min_cycle;Max_cycle;Signal;HPM_P1;HPM_P2
2022/01/31 00:01:05;;;;;;;9.37;3.23;;;;;;;3.55;42.48;100527.22;10182719;29;20653;-84
2022/01/31 00:06:08;;;;;;;8.20;2.60;;;;;;;3.36;42.34;100512.31;10183390;29;20237;-84
2022/01/31 00:11:11;;;;;;;13.27;3.43;;;;;;;2.82;43.90;100488.22;10187583;29;20228;-84
2022/01/31 00:16:17;;;;;;;9.30;3.70;;;;;;;3.38;43.03;100461.72;10150793;29;20197;-84
2022/01/31 00:21:19;;;;;;;12.33;3.40;;;;;;;3.28;42.84;100455.13;10121478;29;20237;-84
2022/01/31 00:26:21;;;;;;;8.47;2.93;;;;;;;3.52;42.30;100449.53;10127048;29;20213;-84
2022/01/31 00:31:23;;;;;;;7.33;3.00;;;;;;;4.54;40.62;100442.50;10141229;29;20214;-84
2022/01/31 00:36:26;;;;;;;8.33;2.87;;;;;;;4.29;41.26;100402.56;10161513;29;20582;-88
2022/01/31 00:41:28;;;;;;;9.93;2.93;;;;;;;3.38;42.78;100398.28;10125596;29;20268;-85
2022/01/31 00:46:39;;;;;;;9.43;2.33;;;;;;;3.82;41.63;100388.78;10125787;29;20221;-84
2022/01/31 00:51:42;;;;;;;7.30;2.17;;;;;;;4.14;41.42;100371.19;10111220;29;20558;-84
2022/01/31 00:56:44;;;;;;;10.30;2.13;;;;;;;3.68;41.72;100364.34;10125107;29;20202;-85
2022/01/31 01:01:47;;;;;;;12.03;2.67;;;;;;;3.48;42.97;100347.84;10133903;29;20204;-89
2022/01/31 01:06:50;;;;;;;10.40;2.00;;;;;;;3.09;43.16;100322.91;10147779;29;20232;-86
2022/01/31 01:11:52;;;;;;;6.03;2.23;;;;;;;3.54;42.43;100273.97;10162423;29;20232;-86
2022/01/31 01:16:54;;;;;;;5.60;1.60;;;;;;;3.21;43.31;100249.88;10162306;29;20208;-84
2022/01/31 01:21:57;;;;;;;7.50;2.37;;;;;;;2.92;44.12;100222.88;10147362;29;20292;-87
2022/01/31 01:26:59;;;;;;;6.90;1.97;;;;;;;3.72;42.89;100207.19;10153692;29;20658;-85
2022/01/31 01:32:03;;;;;;;11.30;2.23;;;;;;;4.14;42.06;100187.38;10161217;29;20208;-86
2022/01/31 01:37:08;;;;;;;5.23;1.53;;;;;;;2.85;44.79;100160.97;10160967;29;20257;-85
2022/01/31 01:42:12;;;;;;;8.20;2.07;;;;;;;2.94;44.69;100136.03;10143181;29;20260;-85
2022/01/31 01:47:16;;;;;;;8.47;1.60;;;;;;;2.99;44.34;100094.88;10157641;29;20629;-88
2022/01/31 01:52:19;;;;;;;6.07;1.83;;;;;;;3.73;43.22;100057.88;10160192;29;20228;-86
2022/01/31 01:57:23;;;;;;;5.50;1.90;;;;;;;3.17;44.63;100044.88;10145376;29;20213;-84
2022/01/31 02:02:28;;;;;;;7.97;1.93;;;;;;;3.53;43.26;100012.38;10145755;29;20208;-88
2022/01/31 02:07:35;;;;;;;10.23;1.80;;;;;;;3.08;44.11;99971.31;10162192;29;20626;-86
2022/01/31 02:12:40;;;;;;;9.23;2.33;;;;;;;2.76;44.93;99960.97;10161616;29;20232;-84
2022/01/31 02:17:44;;;;;;;7.43;1.73;;;;;;;2.93;45.15;99936.13;10161369;29;20212;-84
2022/01/31 02:22:53;;;;;;;6.60;1.77;;;;;;;2.98;45.26;99928.47;10152888;29;20204;-84
2022/01/31 02:28:03;;;;;;;10.37;1.83;;;;;;;2.93;45.82;99900.66;10152112;29;20296;-85
2022/01/31 02:33:05;;;;;;;6.30;1.70;;;;;;;1.88;50.42;99907.69;10164839;29;20775;-84
2022/01/31 02:38:08;;;;;;;4.83;1.80;;;;;;;3.17;48.39;99891.25;10183984;29;20237;-85
2022/01/31 02:43:19;;;;;;;9.20;2.30;;;;;;;2.81;49.69;99875.19;10180684;29;20241;-84
2022/01/31 02:48:24;;;;;;;8.57;2.37;;;;;;;3.32;49.32;99849.06;10166139;29;20566;-83
2022/01/31 02:53:30;;;;;;;9.20;1.80;;;;;;;2.56;52.33;99853.34;10137522;29;20294;-82
2022/01/31 02:58:33;;;;;;;8.93;2.43;;;;;;;3.29;50.62;99835.72;10128478;29;20209;-88
2022/01/31 03:03:35;;;;;;;8.33;2.43;;;;;;;2.93;51.72;99822.47;10128893;29;20751;-82
2022/01/31 03:08:38;;;;;;;8.87;2.27;;;;;;;2.74;52.61;99799.38;10127912;29;20339;-82
2022/01/31 03:13:54;;;;;;;6.40;2.53;;;;;;;2.89;52.50;99781.50;10159521;29;20208;-82
2022/01/31 03:18:57;;;;;;;7.50;2.40;;;;;;;2.46;53.73;99770.63;10151898;29;20501;-83
2022/01/31 03:23:59;;;;;;;7.20;2.27;;;;;;;2.15;53.90;99773.16;10160436;29;20213;-83
2022/01/31 03:29:03;;;;;;;5.37;2.47;;;;;;;2.79;51.73;99760.22;10153130;29;20292;-82
2022/01/31 03:34:05;;;;;;;5.43;2.30;;;;;;;1.50;55.28;99742.44;10139142;29;20610;-82
2022/01/31 03:39:08;;;;;;;5.90;2.60;;;;;;;2.10;53.10;99736.97;10129768;29;20198;-84
2022/01/31 03:44:12;;;;;;;6.47;2.70;;;;;;;2.02;53.71;99715.41;10160989;29;20264;-82
2022/01/31 03:49:15;;;;;;;5.63;2.77;;;;;;;2.23;52.88;99713.88;10150884;29;20236;-83
2022/01/31 03:54:21;;;;;;;3.80;1.97;;;;;;;2.47;52.42;99701.69;10150443;29;20224;-83
2022/01/31 03:59:23;;;;;;;3.83;1.90;;;;;;;1.41;55.56;99676.53;10119062;29;20213;-84
2022/01/31 04:04:25;;;;;;;4.97;2.27;;;;;;;2.00;54.32;99647.97;10143908;29;20499;-83
2022/01/31 04:09:28;;;;;;;3.73;1.73;;;;;;;2.56;53.96;99635.69;10163906;29;20708;-86
2022/01/31 04:14:31;;;;;;;5.40;1.70;;;;;;;2.71;53.60;99623.34;10128962;29;20209;-83
2022/01/31 04:19:33;;;;;;;2.90;1.70;;;;;;;2.21;54.77;99626.06;10126928;29;20536;-82
2022/01/31 04:24:35;;;;;;;5.77;1.57;;;;;;;2.54;55.25;99615.63;10128047;29;20540;-83
2022/01/31 04:29:40;;;;;;;3.37;1.67;;;;;;;2.51;55.51;99613.47;10181437;29;20629;-84
2022/01/31 04:34:42;;;;;;;4.37;1.60;;;;;;;2.65;56.14;99600.31;10165754;29;20486;-82
2022/01/31 04:39:45;;;;;;;4.60;1.33;;;;;;;3.56;54.00;99580.53;10156494;29;20264;-83
2022/01/31 04:44:48;;;;;;;5.50;2.00;;;;;;;2.93;55.69;99587.94;10112498;29;20658;-87
2022/01/31 04:49:51;;;;;;;7.80;3.00;;;;;;;3.44;55.76;99569.13;10126457;29;20249;-84
2022/01/31 04:54:54;;;;;;;7.07;3.10;;;;;;;3.60;56.04;99567.56;10174238;29;20224;-84
2022/01/31 04:59:56;;;;;;;4.97;2.87;;;;;;;3.84;54.26;99564.41;10154384;29;20255;-84
2022/01/31 05:04:58;;;;;;;8.77;3.70;;;;;;;3.57;56.16;99546.69;10184748;29;20209;-85
2022/01/31 05:10:01;;;;;;;7.30;4.43;;;;;;;4.04;54.87;99561.00;10192479;29;20240;-83
2022/01/31 05:15:04;;;;;;;5.97;3.80;;;;;;;4.85;52.26;99544.59;10102242;29;20205;-84
2022/01/31 05:20:07;;;;;;;7.27;4.63;;;;;;;3.25;57.52;99553.38;10117448;29;20245;-83
2022/01/31 05:25:09;;;;;;;8.50;5.07;;;;;;;4.40;54.26;99542.03;10121358;29;20214;-83
2022/01/31 05:30:12;;;;;;;9.60;5.53;;;;;;;4.37;54.74;99531.50;10117086;29;20492;-84
2022/01/31 05:35:14;;;;;;;12.03;5.33;;;;;;;4.53;54.17;99522.63;10116935;29;20237;-83
2022/01/31 05:40:16;;;;;;;7.80;5.17;;;;;;;4.49;54.52;99518.84;10109693;29;20213;-83
2022/01/31 05:45:18;;;;;;;8.93;4.93;;;;;;;4.51;53.52;99502.59;10155062;29;20586;-84
2022/01/31 05:50:20;;;;;;;9.17;5.80;;;;;;;4.61;53.86;99508.66;10140023;29;20796;-83
2022/01/31 05:55:23;;;;;;;9.07;5.00;;;;;;;4.53;54.16;99494.66;10143004;29;20257;-83
2022/01/31 06:00:25;;;;;;;12.17;4.73;;;;;;;4.57;53.32;99485.28;10159449;29;20213;-89
2022/01/31 06:05:27;;;;;;;9.57;4.77;;;;;;;4.23;53.98;99488.03;10171084;29;20233;-85
2022/01/31 06:10:29;;;;;;;9.97;3.77;;;;;;;4.49;53.61;99476.84;10136548;29;20700;-85
2022/01/31 06:15:32;;;;;;;11.97;3.87;;;;;;;4.17;54.30;99476.16;10144491;29;20508;-84
2022/01/31 06:20:34;;;;;;;8.47;2.67;;;;;;;3.38;55.14;99481.78;10122920;29;20503;-85
2022/01/31 06:25:36;;;;;;;6.27;2.40;;;;;;;4.33;53.52;99471.75;10092200;29;20225;-85
2022/01/31 06:30:39;;;;;;;9.67;2.50;;;;;;;4.45;52.86;99461.88;10122706;29;20229;-89
2022/01/31 06:35:43;;;;;;;12.57;2.57;;;;;;;4.82;50.90;99444.41;10150850;29;20213;-85
2022/01/31 06:40:46;;;;;;;12.97;2.70;;;;;;;4.24;52.09;99442.13;10153143;29;20256;-85
2022/01/31 06:45:49;;;;;;;10.20;4.03;;;;;;;4.74;52.55;99446.09;10166180;29;20213;-85
2022/01/31 06:50:51;;;;;;;13.53;3.77;;;;;;;4.89;51.79;99449.53;10150217;29;20311;-87
2022/01/31 06:55:55;;;;;;;7.43;3.67;;;;;;;4.01;54.58;99455.38;10142842;29;20526;-88
2022/01/31 07:00:58;;;;;;;10.47;3.13;;;;;;;4.47;53.77;99440.78;10139438;29;20567;-85
2022/01/31 07:06:01;;;;;;;13.17;3.37;;;;;;;5.52;50.95;99448.69;10154623;29;20268;-85
2022/01/31 07:11:03;;;;;;;7.87;3.90;;;;;;;5.15;51.63;99438.28;10148936;29;20716;-84
2022/01/31 07:16:06;;;;;;;9.37;3.53;;;;;;;4.81;54.29;99451.19;10174164;29;20208;-84
2022/01/31 07:21:13;;;;;;;6.10;2.90;;;;;;;3.44;58.07;99458.16;10159450;29;20209;-88
2022/01/31 07:26:16;;;;;;;4.00;3.00;;;;;;;3.03;57.22;99460.38;10147869;29;20262;-84
2022/01/31 07:31:19;;;;;;;6.87;2.47;;;;;;;3.17;57.03;99464.75;10169022;29;20276;-84
2022/01/31 07:36:22;;;;;;;3.87;1.83;;;;;;;2.64;58.41;99464.72;10134991;29;20260;-83
2022/01/31 07:41:24;;;;;;;8.17;1.30;;;;;;;3.34;56.30;99469.63;10163443;29;20197;-84
2022/01/31 07:46:27;;;;;;;1.37;0.90;;;;;;;3.42;56.51;99460.47;10170870;29;20201;-85
2022/01/31 07:51:29;;;;;;;4.63;1.37;;;;;;;4.08;53.91;99449.31;10157193;29;20578;-84
2022/01/31 07:56:31;;;;;;;4.63;1.53;;;;;;;4.68;52.76;99463.38;10130003;29;20217;-85
2022/01/31 08:01:34;;;;;;;2.97;1.20;;;;;;;3.53;55.24;99450.66;10152280;29;20196;-83
2022/01/31 08:06:37;;;;;;;5.60;2.00;;;;;;;3.18;56.22;99449.63;10156491;29;20205;-84
2022/01/31 08:11:39;;;;;;;6.87;2.07;;;;;;;3.43;55.50;99439.75;10155914;29;20229;-84
2022/01/31 08:16:42;;;;;;;4.40;2.90;;;;;;;3.47;56.33;99448.31;10176939;29;20209;-84
2022/01/31 08:21:45;;;;;;;6.30;2.90;;;;;;;3.92;54.66;99440.56;10163244;29;20521;-87
2022/01/31 08:26:47;;;;;;;4.50;3.00;;;;;;;3.18;56.09;99420.88;10137675;29;20494;-84
2022/01/31 08:31:52;;;;;;;8.17;3.73;;;;;;;3.04;57.82;99415.38;10127628;29;20293;-83
2022/01/31 08:36:55;;;;;;;5.53;3.03;;;;;;;3.48;55.30;99411.66;10168789;29;20205;-84
2022/01/31 08:41:57;;;;;;;5.57;3.17;;;;;;;4.17;54.16;99389.44;10155706;29;20605;-84
2022/01/31 08:46:59;;;;;;;5.00;2.60;;;;;;;4.64;52.77;99389.63;10159485;29;20209;-87
2022/01/31 08:52:04;;;;;;;3.67;2.57;;;;;;;4.49;53.40;99376.94;10127270;29;20229;-84
2022/01/31 08:57:07;;;;;;;5.20;2.77;;;;;;;4.10;54.67;99383.50;10160935;29;20205;-85
2022/01/31 09:02:14;;;;;;;7.93;2.53;;;;;;;3.60;55.59;99395.09;10159036;29;20252;-84
2022/01/31 09:07:22;;;;;;;6.70;2.57;;;;;;;3.50;56.35;99384.22;10144861;29;20257;-84
2022/01/31 09:12:29;;;;;;;4.50;2.37;;;;;;;3.90;56.30;99370.16;10160199;29;20224;-84
2022/01/31 09:17:31;;;;;;;4.37;2.13;;;;;;;3.62;54.78;99370.44;10170592;29;20198;-87
2022/01/31 09:22:33;;;;;;;5.60;2.37;;;;;;;3.60;56.13;99361.56;10142562;29;20200;-84
2022/01/31 09:27:36;;;;;;;4.60;2.50;;;;;;;3.83;54.79;99358.66;10128364;29;20216;-84
2022/01/31 09:32:38;;;;;;;7.33;2.07;;;;;;;3.17;56.84;99353.03;10141203;29;20570;-83
2022/01/31 09:37:40;;;;;;;12.40;2.57;;;;;;;3.69;56.84;99354.03;10143083;29;20225;-85
2022/01/31 09:48:38;;;;;;;7.60;0.90;;;;;;;2.51;58.61;99348.41;10144419;29;20284;-84
2022/01/31 09:53:53;;;;;;;5.53;1.40;;;;;;;3.81;56.45;99339.41;10145216;29;20231;-84
2022/01/31 09:58:55;;;;;;;5.43;1.80;;;;;;;3.47;57.62;99344.94;10149375;29;20209;-84
2022/01/31 10:04:09;;;;;;;6.83;1.87;;;;;;;3.19;57.80;99350.75;10147262;29;20451;-85
2022/01/31 10:09:17;;;;;;;6.90;1.57;;;;;;;4.44;54.48;99342.69;10148387;29;20311;-86
2022/01/31 10:19:43;;;;;;;5.33;1.77;;;;;;;4.15;55.73;99358.16;10149932;29;20268;-85
2022/01/31 10:24:48;;;;;;;4.40;1.07;;;;;;;3.60;57.75;99381.09;10148566;29;20315;-84
2022/01/31 10:29:53;;;;;;;4.87;1.10;;;;;;;3.62;57.20;99387.22;10144457;29;20306;-84
2022/01/31 10:34:58;;;;;;;4.97;1.10;;;;;;;3.21;58.69;99390.31;10152347;29;20275;-85
2022/01/31 10:55:40;;;;;;;4.83;0.87;;;;;;;3.74;57.53;99424.88;10155017;29;20229;-83
2022/01/31 11:00:42;;;;;;;4.73;0.87;;;;;;;3.21;58.94;99437.00;10139499;29;20605;-83
2022/01/31 11:05:49;;;;;;;3.93;0.60;;;;;;;3.29;58.19;99434.28;10168149;29;20213;-84
2022/01/31 11:10:57;;;;;;;2.87;0.53;;;;;;;4.20;56.56;99439.13;10160227;29;20480;-88
2022/01/31 11:16:00;;;;;;;3.87;1.10;;;;;;;3.49;58.13;99460.81;10153533;29;20209;-88
2022/01/31 11:21:05;;;;;;;3.87;0.80;;;;;;;3.23;59.35;99471.00;10146395;29;20233;-86
2022/01/31 11:26:11;;;;;;;2.10;0.30;;;;;;;3.13;60.02;99483.28;10153504;29;20530;-85
2022/01/31 11:31:13;;;;;;;3.40;0.53;;;;;;;3.49;58.85;99504.69;10160793;29;20274;-88
2022/01/31 11:36:15;;;;;;;2.40;0.33;;;;;;;4.17;56.96;99504.13;10133799;29;20587;-84
2022/01/31 11:41:18;;;;;;;1.90;0.30;;;;;;;2.84;60.79;99530.34;10137675;29;20257;-84
2022/01/31 11:46:24;;;;;;;1.53;0.27;;;;;;;3.24;60.10;99543.34;10149424;29;20236;-83
2022/01/31 11:51:27;;;;;;;3.33;0.40;;;;;;;3.23;60.39;99546.41;10132913;29;20256;-85
2022/01/31 11:56:29;;;;;;;1.57;0.20;;;;;;;2.65;61.46;99569.63;10147961;29;20575;-84
2022/01/31 12:01:31;;;;;;;2.10;0.20;;;;;;;2.63;61.57;99567.13;10147554;29;20213;-83
2022/01/31 12:06:34;;;;;;;0.27;0.20;;;;;;;3.57;59.54;99571.81;10158646;29;20208;-85
2022/01/31 12:12:08;;;;;;;0.90;0.40;;;;;;;3.91;59.78;99575.94;10135895;29;20574;-84
2022/01/31 12:17:56;;;;;;;3.80;0.50;;;;;;;4.50;56.91;99577.31;10159314;29;20232;-84
2022/01/31 12:22:59;;;;;;;3.33;0.63;;;;;;;3.52;59.87;99583.13;10148895;29;20204;-84
2022/01/31 12:28:34;;;;;;;3.50;0.40;;;;;;;3.77;58.92;99589.19;10179591;29;20197;-85
2022/01/31 12:33:40;;;;;;;1.63;0.43;;;;;;;3.83;60.35;99590.72;10133053;29;20209;-85
2022/01/31 12:38:43;;;;;;;0.83;0.13;;;;;;;4.91;56.55;99604.88;10143454;29;20209;-84
2022/01/31 12:43:51;;;;;;;3.63;0.53;;;;;;;3.84;58.93;99611.94;10177641;29;20209;-84
2022/01/31 12:49:09;;;;;;;2.73;0.70;;;;;;;3.55;61.73;99620.78;10175837;29;20220;-84
2022/01/31 12:54:20;;;;;;;3.37;1.00;;;;;;;3.38;62.64;99635.47;10141734;29;20249;-84
2022/01/31 12:59:22;;;;;;;3.33;1.33;;;;;;;3.24;62.72;99634.66;10131142;29;20610;-83
2022/01/31 13:04:27;;;;;;;6.30;1.07;;;;;;;3.93;61.24;99646.34;10141638;29;20205;-84
2022/01/31 13:09:32;;;;;;;6.00;2.00;;;;;;;4.63;59.20;99625.94;10124430;29;20225;-84
2022/01/31 13:14:36;;;;;;;7.47;2.80;;;;;;;4.05;61.13;99640.97;10158612;29;20204;-85
2022/01/31 13:19:45;;;;;;;5.13;2.23;;;;;;;4.37;60.43;99649.03;10151098;29;20634;-85
2022/01/31 13:24:49;;;;;;;4.20;1.47;;;;;;;4.92;58.16;99642.94;10147003;29;20283;-85
2022/01/31 13:29:52;;;;;;;3.83;0.80;;;;;;;5.10;56.59;99639.00;10165321;29;20567;-85
2022/01/31 13:34:57;;;;;;;3.20;0.87;;;;;;;4.61;59.22;99653.41;10151290;29;20479;-86
2022/01/31 13:40:14;;;;;;;5.53;1.00;;;;;;;3.90;59.99;99666.56;10148907;29;20205;-86
2022/01/31 13:45:22;;;;;;;4.10;1.13;;;;;;;5.00;56.92;99667.34;10140891;29;20315;-86
2022/01/31 13:50:29;;;;;;;4.20;0.80;;;;;;;4.98;57.07;99658.44;10155192;29;20449;-85
2022/01/31 13:55:34;;;;;;;3.83;1.00;;;;;;;4.81;57.81;99654.78;10151356;29;20224;-86
2022/01/31 14:00:42;;;;;;;2.57;1.00;;;;;;;4.78;58.04;99656.25;10166740;29;20209;-87
2022/01/31 14:06:00;;;;;;;3.53;0.97;;;;;;;4.58;58.49;99676.47;10151174;29;20212;-86
2022/01/31 14:11:09;;;;;;;5.17;1.37;;;;;;;4.73;58.56;99690.84;10151030;29;20314;-86
2022/01/31 14:16:14;;;;;;;4.77;1.30;;;;;;;5.86;55.61;99672.13;10147344;29;20276;-84
2022/01/31 14:21:19;;;;;;;6.20;1.43;;;;;;;5.71;55.84;99676.28;10123348;29;20201;-85
2022/01/31 14:26:42;;;;;;;6.80;2.13;;;;;;;4.96;57.61;99694.34;10149798;29;20550;-85
2022/01/31 14:31:51;;;;;;;6.53;2.57;;;;;;;5.03;58.03;99711.50;10148349;29;20228;-88
2022/01/31 14:37:12;;;;;;;5.23;2.30;;;;;;;5.22;56.37;99716.00;10141877;29;20688;-88
2022/01/31 14:42:44;;;;;;;7.87;1.77;;;;;;;4.67;59.19;99724.91;10161316;29;20208;-85
2022/01/31 14:47:53;;;;;;;5.90;1.30;;;;;;;4.33;59.33;99742.34;10158739;29;20259;-84
2022/01/31 14:52:56;;;;;;;4.73;1.13;;;;;;;4.33;61.15;99731.97;10158558;29;20281;-84
2022/01/31 14:57:58;;;;;;;3.73;1.90;;;;;;;4.16;59.88;99747.81;10162650;29;20209;-85
2022/01/31 15:03:01;;;;;;;4.37;1.70;;;;;;;3.99;60.37;99785.72;10149176;29;20689;-84
2022/01/31 15:08:03;;;;;;;3.00;0.80;;;;;;;3.22;60.93;99807.34;10148654;29;20213;-84
2022/01/31 15:13:06;;;;;;;3.07;0.50;;;;;;;4.70;56.61;99825.06;10146169;29;20276;-85
2022/01/31 15:18:12;;;;;;;5.03;1.40;;;;;;;4.00;58.42;99829.31;10131125;29;20209;-90
2022/01/31 15:23:20;;;;;;;10.13;1.60;;;;;;;4.08;59.18;99841.75;10164308;29;20209;-85
2022/01/31 15:28:22;;;;;;;4.27;1.23;;;;;;;5.74;55.90;99843.91;10158979;29;20260;-85
2022/01/31 15:33:24;;;;;;;8.67;1.90;;;;;;;5.55;56.03;99845.34;10171936;29;20249;-85
2022/01/31 15:38:27;;;;;;;9.00;2.03;;;;;;;5.44;55.54;99856.84;10159200;29;20260;-84
2022/01/31 15:43:31;;;;;;;10.90;1.70;;;;;;;4.55;57.88;99887.88;10167922;29;21056;-84
2022/01/31 15:48:53;;;;;;;6.97;1.77;;;;;;;4.60;57.04;99895.34;10161138;29;20208;-84
2022/01/31 15:53:55;;;;;;;6.60;1.23;;;;;;;4.86;55.96;99899.13;10172688;29;20574;-85
2022/01/31 15:58:58;;;;;;;11.10;1.33;;;;;;;5.04;56.45;99898.06;10168001;29;20256;-83
2022/01/31 16:04:00;;;;;;;10.43;2.23;;;;;;;4.67;56.76;99916.13;10150423;29;20224;-83
2022/01/31 16:09:02;;;;;;;12.00;2.80;;;;;;;5.65;54.19;99912.34;10155977;29;20662;-89
2022/01/31 16:14:11;;;;;;;8.30;1.90;;;;;;;5.19;56.23;99938.00;10179593;29;20229;-83
2022/01/31 16:19:14;;;;;;;8.67;1.83;;;;;;;5.20;55.42;99940.50;10180897;29;20606;-83
2022/01/31 16:24:16;;;;;;;7.13;1.00;;;;;;;4.39;57.94;99939.75;10160718;29;20276;-88
2022/01/31 16:29:18;;;;;;;8.40;2.10;;;;;;;6.05;53.53;99930.75;10125746;29;20248;-88
2022/01/31 16:34:22;;;;;;;6.03;1.63;;;;;;;6.57;52.04;99941.19;10128717;29;20213;-89
2022/01/31 16:39:24;;;;;;;8.17;1.30;;;;;;;5.27;55.68;99954.06;10143231;29;20498;-88
2022/01/31 16:44:26;;;;;;;6.67;1.27;;;;;;;5.01;56.24;99970.72;10112167;29;20677;-88
2022/01/31 16:49:29;;;;;;;4.60;1.00;;;;;;;4.74;56.86;99982.91;10149200;29;20275;-88
2022/01/31 16:54:32;;;;;;;4.20;1.00;;;;;;;5.04;55.87;99989.69;10144936;29;20614;-90
2022/01/31 16:59:34;;;;;;;9.10;1.23;;;;;;;5.15;56.13;99995.88;10129272;29;20236;-90
2022/01/31 17:04:37;;;;;;;10.40;1.77;;;;;;;4.41;59.37;100013.03;10132282;29;20209;-91
2022/01/31 17:09:39;;;;;;;11.77;2.13;;;;;;;5.58;55.74;100016.53;10158011;29;20295;-88
2022/01/31 17:14:42;;;;;;;6.13;1.50;;;;;;;5.18;56.64;100031.63;10142712;29;20212;-92
2022/01/31 17:19:44;;;;;;;12.30;3.13;;;;;;;5.44;56.28;100044.66;10187089;29;20635;-87
2022/01/31 17:24:47;;;;;;;4.53;1.37;;;;;;;4.64;57.04;100047.56;10175930;29;20216;-88
2022/01/31 17:29:49;;;;;;;9.40;1.87;;;;;;;5.31;55.49;100042.78;10161208;29;20716;-88
2022/01/31 17:34:51;;;;;;;8.27;1.93;;;;;;;4.89;57.21;100060.13;10150696;29;20346;-88
2022/01/31 17:39:55;;;;;;;10.67;2.37;;;;;;;5.34;56.10;100066.53;10134550;29;20197;-91
2022/01/31 17:45:00;;;;;;;6.93;1.30;;;;;;;5.13;55.58;100076.63;10113242;29;20242;-89
2022/01/31 17:50:03;;;;;;;6.03;1.47;;;;;;;4.57;56.58;100111.53;10098061;29;20634;-90
2022/01/31 17:55:05;;;;;;;5.33;1.40;;;;;;;5.36;55.12;100131.53;10167903;29;20264;-88
2022/01/31 18:00:08;;;;;;;4.90;1.10;;;;;;;4.81;54.96;100145.72;10144304;29;20212;-89
2022/01/31 18:05:11;;;;;;;5.13;1.77;;;;;;;4.69;56.22;100160.25;10165945;29;20204;-88
2022/01/31 18:10:14;;;;;;;6.87;2.00;;;;;;;4.66;56.64;100165.63;10153413;29;20279;-86
2022/01/31 18:15:16;;;;;;;6.60;1.17;;;;;;;3.96;58.01;100172.34;10147041;29;20287;-87
2022/01/31 18:20:19;;;;;;;7.57;1.60;;;;;;;4.81;55.92;100196.13;10147010;29;20248;-86
2022/01/31 18:25:21;;;;;;;6.33;1.20;;;;;;;3.94;57.22;100227.75;10139395;29;20273;-87
2022/01/31 18:30:24;;;;;;;4.20;0.90;;;;;;;3.75;58.58;100242.91;10158959;29;20750;-84
2022/01/31 18:35:27;;;;;;;2.17;1.10;;;;;;;3.97;58.10;100271.06;10153705;29;20276;-89
2022/01/31 18:40:31;;;;;;;2.67;1.20;;;;;;;3.59;58.62;100278.69;10121453;29;20201;-86
2022/01/31 18:45:34;;;;;;;4.17;1.40;;;;;;;4.25;57.49;100305.56;10149490;29;20288;-88
2022/01/31 18:50:38;;;;;;;3.47;1.60;;;;;;;5.15;54.86;100309.72;10150770;29;20408;-86
2022/01/31 18:55:42;;;;;;;5.23;1.80;;;;;;;4.83;55.85;100335.84;10152377;29;20299;-86
2022/01/31 19:00:44;;;;;;;5.67;2.10;;;;;;;4.48;55.45;100356.94;10159468;29;20209;-86
2022/01/31 19:05:49;;;;;;;5.37;2.13;;;;;;;3.98;54.65;100373.44;10169104;29;20207;-85
2022/01/31 19:15:55;;;;;;;3.73;1.60;;;;;;;3.92;52.19;100399.81;10176369;29;20217;-85
2022/01/31 19:21:00;;;;;;;2.17;1.97;;;;;;;4.41;51.21;100416.09;10174481;29;20209;-85
2022/01/31 19:26:03;;;;;;;3.60;2.17;;;;;;;4.96;50.07;100439.53;10159469;29;20252;-85
2022/01/31 19:31:05;;;;;;;3.03;2.07;;;;;;;5.15;48.98;100458.25;10183006;29;20229;-86
2022/01/31 19:36:09;;;;;;;4.53;2.97;;;;;;;5.18;49.12;100480.88;10160474;29;20232;-85
2022/01/31 19:46:32;;;;;;;4.23;3.13;;;;;;;4.28;49.72;100509.22;10165651;29;20204;-86
2022/01/31 19:51:36;;;;;;;7.03;4.27;;;;;;;4.21;50.50;100529.19;10160872;29;20276;-88
2022/01/31 19:56:38;;;;;;;5.27;4.17;;;;;;;4.66;49.41;100532.47;10161383;29;20204;-85
2022/01/31 20:01:41;;;;;;;6.33;4.43;;;;;;;4.62;48.97;100546.28;10176951;29;20849;-83
2022/01/31 20:06:45;;;;;;;4.67;3.17;;;;;;;4.23;50.28;100559.69;10154541;29;20213;-85
2022/01/31 20:11:47;;;;;;;5.77;3.73;;;;;;;4.10;50.88;100566.84;10153243;29;20563;-86
2022/01/31 20:16:50;;;;;;;7.30;3.93;;;;;;;4.34;50.19;100573.25;10162014;29;20275;-86
2022/01/31 20:21:56;;;;;;;6.37;4.80;;;;;;;4.94;48.34;100583.84;10149382;29;20792;-86
2022/01/31 20:26:58;;;;;;;5.03;4.17;;;;;;;4.64;49.57;100590.78;10170617;29;20272;-86
2022/01/31 20:32:01;;;;;;;5.33;4.83;;;;;;;4.00;51.79;100592.97;10162045;29;20578;-86
2022/01/31 20:37:10;;;;;;;8.23;5.27;;;;;;;4.29;51.61;100603.25;10163697;29;20657;-86
2022/01/31 20:42:12;;;;;;;7.23;5.33;;;;;;;4.16;51.56;100631.94;10116573;29;20511;-84
2022/01/31 20:47:14;;;;;;;6.37;5.23;;;;;;;4.59;50.26;100611.28;10140282;29;20665;-85
2022/01/31 20:52:19;;;;;;;6.17;5.50;;;;;;;4.75;50.48;100634.28;10150367;29;20260;-86
2022/01/31 20:57:21;;;;;;;8.43;5.57;;;;;;;4.86;49.75;100648.97;10137835;29;20216;-84
2022/01/31 21:02:23;;;;;;;7.37;5.93;;;;;;;3.59;53.81;100661.66;10134984;29;20503;-84
2022/01/31 21:07:29;;;;;;;8.20;5.97;;;;;;;3.30;54.98;100681.19;10139088;29;21519;-83
2022/01/31 21:12:33;;;;;;;6.90;5.97;;;;;;;4.23;53.32;100683.66;10168725;29;20323;-86
2022/01/31 21:17:36;;;;;;;5.70;5.03;;;;;;;3.28;55.14;100683.44;10161681;29;20281;-84
2022/01/31 21:22:40;;;;;;;6.60;3.90;;;;;;;2.74;56.11;100678.72;10165597;29;20502;-84
2022/01/31 21:27:46;;;;;;;2.77;2.17;;;;;;;3.04;56.17;100694.47;10139934;29;20204;-84
2022/01/31 21:32:50;;;;;;;3.20;1.97;;;;;;;3.14;55.72;100687.97;10151551;29;20260;-85
2022/01/31 21:37:53;;;;;;;6.13;2.47;;;;;;;3.25;56.15;100689.59;10167213;29;20197;-84
2022/01/31 21:42:55;;;;;;;3.60;1.53;;;;;;;2.20;58.72;100690.66;10149120;29;20236;-83
2022/01/31 21:48:00;;;;;;;3.17;1.30;;;;;;;2.75;57.43;100697.13;10139605;29;20271;-87
2022/01/31 21:53:02;;;;;;;7.10;1.20;;;;;;;3.76;54.20;100695.59;10153054;29;20263;-86
2022/01/31 21:58:05;;;;;;;1.90;0.73;;;;;;;4.21;53.19;100697.09;10169349;29;20609;-85
2022/01/31 22:03:07;;;;;;;4.10;1.57;;;;;;;4.80;51.87;100709.00;10160361;29;20213;-85
2022/01/31 22:08:10;;;;;;;12.43;2.47;;;;;;;2.07;58.40;100708.00;10150074;29;20232;-85
2022/01/31 22:13:12;;;;;;;10.93;2.80;;;;;;;3.25;55.76;100717.53;10152065;29;20264;-84
2022/01/31 22:18:15;;;;;;;12.90;1.80;;;;;;;2.57;56.11;100740.47;10129368;29;20559;-84
2022/01/31 22:23:17;;;;;;;13.73;2.20;;;;;;;3.52;53.91;100747.81;10135126;29;20228;-86
2022/01/31 22:28:19;;;;;;;17.47;2.70;;;;;;;3.95;53.36;100732.91;10132817;29;20324;-86
2022/01/31 22:33:26;;;;;;;18.53;3.47;;;;;;;3.34;55.41;100740.97;10152278;29;20319;-85
2022/01/31 22:38:28;;;;;;;19.47;2.73;;;;;;;3.87;52.97;100719.53;10106308;29;20284;-85
2022/01/31 22:43:31;;;;;;;16.87;2.87;;;;;;;3.27;55.09;100718.09;10126490;29;20474;-85
2022/01/31 22:48:34;;;;;;;14.83;2.73;;;;;;;2.72;55.56;100717.25;10157869;29;20212;-86
2022/01/31 22:53:36;;;;;;;16.97;3.53;;;;;;;3.28;54.16;100694.59;10160303;29;20315;-85
2022/01/31 22:58:39;;;;;;;15.23;3.27;;;;;;;3.84;52.55;100691.34;10159188;29;20208;-85
2022/01/31 23:03:42;;;;;;;16.27;3.07;;;;;;;3.26;53.25;100686.50;10123556;29;20598;-86
2022/01/31 23:08:45;;;;;;;18.60;2.90;;;;;;;2.73;53.77;100707.75;10124548;29;20257;-86
2022/01/31 23:13:59;;;;;;;19.80;3.90;;;;;;;2.97;52.50;100693.94;10143385;29;20268;-87
2022/01/31 23:19:31;;;;;;;16.50;3.53;;;;;;;2.79;52.57;100720.59;10120088;29;20245;-86
